Wheatley, United Kingdom
Current Conditions -  °F | °C
As of 7:50 PM on Saturday 25 Oct 2014 (Local Time) from EGTK Reporting Station
Drizzle Drizzle  
Wind Chill: 12°   Ceiling: 2300
Heat Index: 12°   Visibility: 6mi
Dew Point: 10°   Wind: 8mph
Humidity: 88%   Direction: 220°SW
Pressure: 30.09"   Gusts: NA
Location:  51.75°N, 1.14°W
Report Text: EGTK 251850Z 22007KT 190V250 9999 -DZ BKN023 BKN027 12/10 Q1019
Loading
Personal Weather Stations






























Interactive Weather Map
Tropical Storm Tracking
New forecast layout! Learn more

10-Day Weather Forecast

Advertisements
Track Severe Weather on mobile